SRV160M GOOY-DRRN
Flight info
| Callsign | SRV160M |
|---|---|
| Flight time | N/A |
| Altitude | 45000 |
| Route | ANITI UM974 GALIV GALIV1R |
| Aircraft | C750/M-SBDE3FGHRWXY/S |
Departure
| Time | 2026-05-06 15:23 |
|---|---|
| Airport | Léopold Sédar Senghor International Airport (GOOY) |
Arrival
| Time | N/A |
|---|---|
| Airport | Diori Hamani International Airport (DRRN) |
| Time | Latitude | Longitude | Altitude | Speed | Heading |
|---|---|---|---|---|---|
| 2026-05-06 15:13 | 14.74076 | -17.48716 | 72 ft | 6 kts | 92° |
| 2026-05-06 15:13 | 14.74077 | -17.48703 | 72 ft | 0 kts | 78° |
| 2026-05-06 15:13 | 14.74087 | -17.48693 | 72 ft | 3 kts | 28° |
| 2026-05-06 15:14 | 14.74128 | -17.48682 | 72 ft | 8 kts | 15° |
| 2026-05-06 15:14 | 14.74199 | -17.48662 | 75 ft | 13 kts | 15° |
| 2026-05-06 15:14 | 14.74295 | -17.48630 | 72 ft | 13 kts | 43° |
| 2026-05-06 15:14 | 14.74277 | -17.48603 | 76 ft | 5 kts | 142° |
| 2026-05-06 15:15 | 14.74267 | -17.48566 | 76 ft | 8 kts | 96° |
| 2026-05-06 15:15 | 14.74279 | -17.48483 | 77 ft | 13 kts | 77° |
| 2026-05-06 15:15 | 14.74296 | -17.48393 | 73 ft | 13 kts | 81° |
| 2026-05-06 15:15 | 14.74313 | -17.48299 | 76 ft | 14 kts | 78° |
| 2026-05-06 15:16 | 14.74334 | -17.48196 | 78 ft | 15 kts | 78° |
| 2026-05-06 15:16 | 14.74309 | -17.48098 | 78 ft | 14 kts | 118° |
| 2026-05-06 15:16 | 14.74279 | -17.48012 | 73 ft | 12 kts | 109° |
| 2026-05-06 15:16 | 14.74247 | -17.47933 | 74 ft | 13 kts | 122° |
| 2026-05-06 15:17 | 14.74142 | -17.47900 | 78 ft | 20 kts | 173° |
| 2026-05-06 15:17 | 14.73984 | -17.47878 | 80 ft | 24 kts | 172° |
| 2026-05-06 15:17 | 14.73824 | -17.47856 | 83 ft | 23 kts | 173° |
| 2026-05-06 15:17 | 14.73673 | -17.47835 | 81 ft | 21 kts | 172° |
| 2026-05-06 15:18 | 14.73536 | -17.47814 | 83 ft | 19 kts | 172° |
| 2026-05-06 15:18 | 14.73415 | -17.47799 | 85 ft | 16 kts | 173° |
| 2026-05-06 15:18 | 14.73306 | -17.47787 | 85 ft | 15 kts | 175° |
| 2026-05-06 15:18 | 14.73206 | -17.47777 | 85 ft | 14 kts | 171° |
| 2026-05-06 15:19 | 14.73102 | -17.47759 | 86 ft | 16 kts | 172° |
| 2026-05-06 15:19 | 14.72983 | -17.47744 | 87 ft | 18 kts | 174° |
| 2026-05-06 15:19 | 14.72858 | -17.47726 | 87 ft | 18 kts | 174° |
| 2026-05-06 15:19 | 14.72742 | -17.47704 | 89 ft | 16 kts | 151° |
| 2026-05-06 15:20 | 14.72659 | -17.47653 | 90 ft | 11 kts | 193° |
| 2026-05-06 15:20 | 14.72640 | -17.47700 | 91 ft | 4 kts | 334° |
| 2026-05-06 15:20 | 14.72650 | -17.47700 | 90 ft | 0 kts | 355° |
| 2026-05-06 15:22 | 14.72677 | -17.47703 | 89 ft | 21 kts | 351° |
| 2026-05-06 15:22 | 14.73205 | -17.47774 | 85 ft | 125 kts | 352° |
| 2026-05-06 15:23 | 14.74218 | -17.47904 | 334 ft | 158 kts | 351° |
| 2026-05-06 15:23 | 14.75322 | -17.47875 | 989 ft | 167 kts | 16° |
| 2026-05-06 15:23 | 14.76040 | -17.46908 | 1633 ft | 190 kts | 70° |
| 2026-05-06 15:23 | 14.75779 | -17.45432 | 2063 ft | 232 kts | 111° |
| 2026-05-06 15:24 | 14.75043 | -17.43867 | 2721 ft | 250 kts | 110° |
| 2026-05-06 15:24 | 14.74522 | -17.42089 | 3271 ft | 269 kts | 98° |
| 2026-05-06 15:24 | 14.74442 | -17.40128 | 4065 ft | 274 kts | 85° |
| 2026-05-06 15:24 | 14.74582 | -17.38162 | 4978 ft | 277 kts | 85° |
| 2026-05-06 15:25 | 14.74661 | -17.36158 | 5814 ft | 280 kts | 89° |
| 2026-05-06 15:25 | 14.74652 | -17.34147 | 6664 ft | 280 kts | 91° |
| 2026-05-06 15:25 | 14.74654 | -17.32128 | 7475 ft | 283 kts | 90° |
| 2026-05-06 15:25 | 14.74689 | -17.30113 | 8353 ft | 286 kts | 90° |
| 2026-05-06 15:26 | 14.74721 | -17.28051 | 9235 ft | 288 kts | 91° |
| 2026-05-06 15:26 | 14.74742 | -17.25938 | 10027 ft | 292 kts | 91° |
| 2026-05-06 15:26 | 14.74763 | -17.23807 | 10338 ft | 313 kts | 91° |
| 2026-05-06 15:26 | 14.74788 | -17.21457 | 10377 ft | 340 kts | 91° |
| 2026-05-06 15:27 | 14.74821 | -17.18935 | 10563 ft | 357 kts | 91° |
| 2026-05-06 15:27 | 14.74853 | -17.16370 | 11254 ft | 357 kts | 91° |
| 2026-05-06 15:27 | 14.74882 | -17.13785 | 11824 ft | 361 kts | 91° |
| 2026-05-06 15:27 | 14.74908 | -17.11177 | 12410 ft | 365 kts | 91° |
| 2026-05-06 15:28 | 14.74939 | -17.08536 | 12984 ft | 368 kts | 91° |
| 2026-05-06 15:28 | 14.74968 | -17.05875 | 13526 ft | 372 kts | 91° |
| 2026-05-06 15:28 | 14.74997 | -17.03186 | 14039 ft | 376 kts | 91° |
| 2026-05-06 15:28 | 14.75026 | -17.00474 | 14496 ft | 380 kts | 91° |
| 2026-05-06 15:29 | 14.75054 | -16.97763 | 14937 ft | 384 kts | 91° |
| 2026-05-06 15:29 | 14.75083 | -16.94987 | 15397 ft | 388 kts | 91° |
| 2026-05-06 15:29 | 14.75113 | -16.92184 | 15856 ft | 393 kts | 91° |
| 2026-05-06 15:29 | 14.75142 | -16.89345 | 16336 ft | 397 kts | 91° |
| 2026-05-06 15:30 | 14.75170 | -16.86477 | 16828 ft | 401 kts | 91° |
| 2026-05-06 15:30 | 14.75199 | -16.83582 | 17337 ft | 405 kts | 91° |
| 2026-05-06 15:30 | 14.75228 | -16.80665 | 17853 ft | 408 kts | 91° |
| 2026-05-06 15:30 | 14.75256 | -16.77714 | 18341 ft | 413 kts | 91° |
| 2026-05-06 15:31 | 14.75286 | -16.74739 | 18809 ft | 416 kts | 91° |
| 2026-05-06 15:31 | 14.75314 | -16.71737 | 19285 ft | 420 kts | 91° |
| 2026-05-06 15:31 | 14.75342 | -16.68700 | 19762 ft | 424 kts | 91° |
| 2026-05-06 15:32 | 14.75398 | -16.62543 | 20754 ft | 432 kts | 91° |
| 2026-05-06 15:32 | 14.75427 | -16.59426 | 21223 ft | 436 kts | 91° |
| 2026-05-06 15:32 | 14.75454 | -16.56276 | 21690 ft | 441 kts | 91° |
| 2026-05-06 15:32 | 14.75481 | -16.53089 | 22159 ft | 446 kts | 91° |
| 2026-05-06 15:33 | 14.75509 | -16.49871 | 22626 ft | 450 kts | 91° |
| 2026-05-06 15:33 | 14.75536 | -16.46620 | 23095 ft | 455 kts | 91° |
| 2026-05-06 15:33 | 14.75563 | -16.43385 | 23551 ft | 459 kts | 91° |
| 2026-05-06 15:33 | 14.75590 | -16.40068 | 23945 ft | 463 kts | 91° |
| 2026-05-06 15:34 | 14.75616 | -16.36730 | 24351 ft | 467 kts | 91° |
| 2026-05-06 15:34 | 14.75643 | -16.33357 | 24754 ft | 471 kts | 91° |
| 2026-05-06 15:34 | 14.75669 | -16.29958 | 25157 ft | 474 kts | 91° |
| 2026-05-06 15:34 | 14.75694 | -16.26529 | 25561 ft | 478 kts | 92° |
| 2026-05-06 15:35 | 14.75719 | -16.23079 | 25951 ft | 482 kts | 92° |
| 2026-05-06 15:35 | 14.75743 | -16.19604 | 26308 ft | 486 kts | 92° |
| 2026-05-06 15:35 | 14.75767 | -16.16103 | 26649 ft | 489 kts | 92° |
| 2026-05-06 15:35 | 14.75792 | -16.12580 | 26976 ft | 493 kts | 92° |
| 2026-05-06 15:36 | 14.75815 | -16.09023 | 27290 ft | 496 kts | 92° |
| 2026-05-06 15:36 | 14.75838 | -16.05451 | 27574 ft | 499 kts | 92° |
| 2026-05-06 15:36 | 14.75860 | -16.01862 | 27850 ft | 501 kts | 92° |
| 2026-05-06 15:36 | 14.75882 | -15.98247 | 28117 ft | 504 kts | 92° |
| 2026-05-06 15:37 | 14.75905 | -15.94616 | 28403 ft | 507 kts | 92° |
| 2026-05-06 15:37 | 14.75927 | -15.90964 | 28671 ft | 509 kts | 92° |
| 2026-05-06 15:37 | 14.75948 | -15.87295 | 28933 ft | 512 kts | 92° |
| 2026-05-06 15:37 | 14.75970 | -15.83598 | 29189 ft | 514 kts | 92° |
| 2026-05-06 15:38 | 14.75990 | -15.79895 | 29444 ft | 517 kts | 92° |
| 2026-05-06 15:38 | 14.76011 | -15.76176 | 29698 ft | 519 kts | 93° |
| 2026-05-06 15:38 | 14.76030 | -15.72431 | 29934 ft | 522 kts | 93° |
| 2026-05-06 15:38 | 14.76049 | -15.68676 | 30157 ft | 524 kts | 93° |
| 2026-05-06 15:39 | 14.76068 | -15.64907 | 30395 ft | 525 kts | 93° |
| 2026-05-06 15:39 | 14.76086 | -15.61132 | 30614 ft | 527 kts | 93° |
| 2026-05-06 15:39 | 14.76103 | -15.57383 | 30843 ft | 528 kts | 93° |
| 2026-05-06 15:39 | 14.76121 | -15.53549 | 31235 ft | 526 kts | 93° |
| 2026-05-06 15:40 | 14.76138 | -15.49777 | 31570 ft | 525 kts | 93° |
| 2026-05-06 15:40 | 14.76152 | -15.46046 | 31877 ft | 525 kts | 93° |
| 2026-05-06 15:40 | 14.76167 | -15.42280 | 32202 ft | 525 kts | 93° |
| 2026-05-06 15:40 | 14.76182 | -15.38512 | 32535 ft | 524 kts | 93° |
| 2026-05-06 15:41 | 14.76196 | -15.34744 | 32870 ft | 524 kts | 93° |
| 2026-05-06 15:41 | 14.76208 | -15.30976 | 33216 ft | 524 kts | 93° |
| 2026-05-06 15:41 | 14.76221 | -15.27214 | 33568 ft | 524 kts | 93° |
| 2026-05-06 15:41 | 14.76233 | -15.23443 | 33921 ft | 524 kts | 93° |
| 2026-05-06 15:42 | 14.76244 | -15.19672 | 34246 ft | 524 kts | 93° |
| 2026-05-06 15:42 | 14.76254 | -15.15903 | 34586 ft | 524 kts | 92° |
| 2026-05-06 15:42 | 14.76264 | -15.12145 | 34928 ft | 523 kts | 92° |
| 2026-05-06 15:42 | 14.76274 | -15.08380 | 35280 ft | 523 kts | 92° |
| 2026-05-06 15:43 | 14.76282 | -15.04619 | 35640 ft | 523 kts | 92° |
| 2026-05-06 15:43 | 14.76290 | -15.00863 | 35999 ft | 522 kts | 92° |
| 2026-05-06 15:43 | 14.76297 | -14.97107 | 36372 ft | 522 kts | 92° |
| 2026-05-06 15:43 | 14.76303 | -14.93402 | 36737 ft | 522 kts | 92° |
| 2026-05-06 15:44 | 14.76309 | -14.89656 | 37121 ft | 521 kts | 92° |
| 2026-05-06 15:44 | 14.76314 | -14.85913 | 37514 ft | 521 kts | 92° |
| 2026-05-06 15:44 | 14.76318 | -14.82168 | 37907 ft | 520 kts | 92° |
| 2026-05-06 15:44 | 14.76322 | -14.78431 | 38291 ft | 520 kts | 91° |
| 2026-05-06 15:45 | 14.76325 | -14.74697 | 38650 ft | 520 kts | 91° |
| 2026-05-06 15:45 | 14.76327 | -14.70964 | 38990 ft | 519 kts | 91° |
| 2026-05-06 15:45 | 14.76330 | -14.67232 | 39343 ft | 518 kts | 91° |
| 2026-05-06 15:45 | 14.76331 | -14.63509 | 39707 ft | 517 kts | 91° |
| 2026-05-06 15:46 | 14.76333 | -14.59802 | 40064 ft | 516 kts | 91° |
| 2026-05-06 15:46 | 14.76334 | -14.56096 | 40425 ft | 515 kts | 91° |
| 2026-05-06 15:46 | 14.76334 | -14.52395 | 40791 ft | 514 kts | 91° |
| 2026-05-06 15:46 | 14.76333 | -14.48699 | 41147 ft | 513 kts | 91° |
| 2026-05-06 15:47 | 14.76332 | -14.45054 | 41488 ft | 512 kts | 91° |
| 2026-05-06 15:47 | 14.76330 | -14.41373 | 41832 ft | 511 kts | 91° |
| 2026-05-06 15:47 | 14.76328 | -14.37700 | 42163 ft | 510 kts | 91° |
| 2026-05-06 15:47 | 14.76325 | -14.34029 | 42483 ft | 509 kts | 91° |
| 2026-05-06 15:48 | 14.76321 | -14.30372 | 42778 ft | 509 kts | 91° |
| 2026-05-06 15:48 | 14.76318 | -14.26717 | 43078 ft | 508 kts | 91° |
| 2026-05-06 15:48 | 14.76313 | -14.23073 | 43367 ft | 507 kts | 91° |
| 2026-05-06 15:48 | 14.76308 | -14.19475 | 43640 ft | 506 kts | 91° |
| 2026-05-06 15:49 | 14.76302 | -14.15840 | 43910 ft | 505 kts | 91° |
| 2026-05-06 15:49 | 14.76296 | -14.12212 | 44180 ft | 504 kts | 91° |
| 2026-05-06 15:49 | 14.76289 | -14.08590 | 44451 ft | 503 kts | 91° |
| 2026-05-06 15:49 | 14.76282 | -14.04972 | 44640 ft | 503 kts | 91° |
| 2026-05-06 15:50 | 14.76268 | -13.98985 | 44833 ft | 501 kts | 91° |
| 2026-05-06 15:50 | 14.76249 | -13.91723 | 44828 ft | 510 kts | 91° |
| 2026-05-06 15:51 | 14.76229 | -13.84292 | 44837 ft | 518 kts | 91° |
| 2026-05-06 15:51 | 14.76204 | -13.76791 | 44842 ft | 525 kts | 91° |
| 2026-05-06 15:52 | 14.76178 | -13.69189 | 44835 ft | 532 kts | 91° |
| 2026-05-06 15:52 | 14.76149 | -13.61508 | 44828 ft | 536 kts | 92° |
| 2026-05-06 15:53 | 14.76116 | -13.53837 | 44832 ft | 536 kts | 92° |
| 2026-05-06 15:53 | 14.76081 | -13.46132 | 44825 ft | 536 kts | 92° |
| 2026-05-06 15:54 | 14.76044 | -13.38430 | 44821 ft | 535 kts | 92° |
| 2026-05-06 15:54 | 14.76004 | -13.30724 | 44821 ft | 537 kts | 92° |
| 2026-05-06 15:55 | 14.75962 | -13.22991 | 44818 ft | 539 kts | 92° |
| 2026-05-06 15:55 | 14.75916 | -13.15219 | 44807 ft | 542 kts | 92° |
| 2026-05-06 15:56 | 14.75868 | -13.07462 | 44802 ft | 544 kts | 92° |
| 2026-05-06 15:56 | 14.75818 | -12.99642 | 44799 ft | 545 kts | 92° |
| 2026-05-06 15:57 | 14.75764 | -12.91807 | 44802 ft | 545 kts | 92° |
| 2026-05-06 15:57 | 14.75707 | -12.83952 | 44811 ft | 546 kts | 92° |
| 2026-05-06 15:58 | 14.75648 | -12.76094 | 44806 ft | 546 kts | 92° |
| 2026-05-06 15:58 | 14.75586 | -12.68250 | 44794 ft | 546 kts | 92° |
| 2026-05-06 15:59 | 14.75522 | -12.60451 | 44784 ft | 546 kts | 92° |
| 2026-05-06 15:59 | 14.75455 | -12.52609 | 44781 ft | 545 kts | 92° |
| 2026-05-06 16:00 | 14.75385 | -12.44765 | 44783 ft | 545 kts | 92° |
| 2026-05-06 16:00 | 14.75312 | -12.36938 | 44788 ft | 544 kts | 92° |
| 2026-05-06 16:01 | 14.75236 | -12.29172 | 44769 ft | 543 kts | 92° |
| 2026-05-06 16:01 | 14.75158 | -12.21370 | 44762 ft | 543 kts | 92° |
| 2026-05-06 16:02 | 14.75076 | -12.13559 | 44768 ft | 542 kts | 92° |
| 2026-05-06 16:02 | 14.74993 | -12.05771 | 44772 ft | 542 kts | 93° |
| 2026-05-06 16:03 | 14.74907 | -11.97988 | 44768 ft | 542 kts | 92° |
| 2026-05-06 16:03 | 14.74818 | -11.90200 | 44753 ft | 542 kts | 93° |
| 2026-05-06 16:04 | 14.74728 | -11.82410 | 44755 ft | 542 kts | 93° |
| 2026-05-06 16:04 | 14.74635 | -11.74611 | 44759 ft | 542 kts | 93° |
| 2026-05-06 16:05 | 14.74540 | -11.66868 | 44759 ft | 542 kts | 93° |
| 2026-05-06 16:05 | 14.74442 | -11.59081 | 44764 ft | 542 kts | 93° |
| 2026-05-06 16:06 | 14.74341 | -11.51274 | 44746 ft | 543 kts | 93° |
| 2026-05-06 16:06 | 14.74238 | -11.43469 | 44753 ft | 543 kts | 93° |
| 2026-05-06 16:07 | 14.74132 | -11.35672 | 44754 ft | 543 kts | 93° |
| 2026-05-06 16:07 | 14.74023 | -11.27866 | 44741 ft | 544 kts | 93° |
| 2026-05-06 16:08 | 14.73911 | -11.20057 | 44734 ft | 543 kts | 93° |
| 2026-05-06 16:08 | 14.73797 | -11.12253 | 44722 ft | 543 kts | 93° |
| 2026-05-06 16:09 | 14.73719 | -11.06972 | 44729 ft | 543 kts | 93° |
| 2026-05-06 16:09 | 14.73640 | -11.01795 | 44733 ft | 542 kts | 93° |
| 2026-05-06 16:10 | 14.73558 | -10.96471 | 44722 ft | 542 kts | 93° |
| 2026-05-06 16:10 | 14.73434 | -10.88683 | 44734 ft | 542 kts | 93° |
| 2026-05-06 16:11 | 14.73309 | -10.80941 | 44741 ft | 541 kts | 93° |
| 2026-05-06 16:11 | 14.73181 | -10.73167 | 44731 ft | 541 kts | 93° |
| 2026-05-06 16:12 | 14.73050 | -10.65397 | 44729 ft | 541 kts | 93° |
| 2026-05-06 16:12 | 14.72917 | -10.57620 | 44727 ft | 540 kts | 93° |
| 2026-05-06 16:13 | 14.72781 | -10.49859 | 44729 ft | 540 kts | 93° |
| 2026-05-06 16:13 | 14.72643 | -10.42102 | 44729 ft | 539 kts | 93° |
| 2026-05-06 16:14 | 14.72502 | -10.34355 | 44727 ft | 539 kts | 93° |
| 2026-05-06 16:14 | 14.72358 | -10.26607 | 44729 ft | 539 kts | 93° |
| 2026-05-06 16:15 | 14.72213 | -10.18854 | 44731 ft | 539 kts | 93° |
| 2026-05-06 16:15 | 14.72065 | -10.11145 | 44732 ft | 540 kts | 93° |
| 2026-05-06 16:16 | 14.71914 | -10.03392 | 44725 ft | 540 kts | 93° |
| 2026-05-06 16:16 | 14.71760 | -9.95628 | 44717 ft | 541 kts | 93° |
| 2026-05-06 16:17 | 14.71603 | -9.87851 | 44719 ft | 541 kts | 93° |
| 2026-05-06 16:17 | 14.71443 | -9.80067 | 44718 ft | 541 kts | 93° |
| 2026-05-06 16:18 | 14.71282 | -9.72335 | 44709 ft | 542 kts | 93° |
| 2026-05-06 16:18 | 14.71117 | -9.64529 | 44713 ft | 543 kts | 93° |
| 2026-05-06 16:19 | 14.70949 | -9.56736 | 44721 ft | 543 kts | 93° |
| 2026-05-06 16:19 | 14.70785 | -9.48931 | 44726 ft | 544 kts | 93° |
| 2026-05-06 16:20 | 14.70616 | -9.41120 | 44712 ft | 544 kts | 93° |
| 2026-05-06 16:20 | 14.70445 | -9.33328 | 44705 ft | 545 kts | 93° |
| 2026-05-06 16:21 | 14.70272 | -9.25497 | 44705 ft | 545 kts | 93° |
| 2026-05-06 16:21 | 14.70095 | -9.17664 | 44711 ft | 546 kts | 93° |
| 2026-05-06 16:22 | 14.69916 | -9.09811 | 44703 ft | 546 kts | 92° |
| 2026-05-06 16:22 | 14.69733 | -9.01966 | 44708 ft | 547 kts | 92° |
| 2026-05-06 16:23 | 14.69548 | -8.94112 | 44709 ft | 547 kts | 92° |
| 2026-05-06 16:23 | 14.69360 | -8.86248 | 44711 ft | 547 kts | 92° |
| 2026-05-06 16:24 | 14.69167 | -8.78382 | 44702 ft | 548 kts | 92° |
| 2026-05-06 16:24 | 14.68963 | -8.70506 | 44702 ft | 548 kts | 92° |
| 2026-05-06 16:25 | 14.68764 | -8.62685 | 44711 ft | 548 kts | 92° |
| 2026-05-06 16:25 | 14.68557 | -8.54809 | 44709 ft | 548 kts | 92° |
| 2026-05-06 16:26 | 14.68350 | -8.46927 | 44702 ft | 549 kts | 92° |
| 2026-05-06 16:26 | 14.68138 | -8.39043 | 44706 ft | 549 kts | 92° |
| 2026-05-06 16:27 | 14.67925 | -8.31170 | 44702 ft | 549 kts | 92° |
| 2026-05-06 16:27 | 14.67708 | -8.23282 | 44691 ft | 549 kts | 92° |
| 2026-05-06 16:28 | 14.67489 | -8.15398 | 44690 ft | 549 kts | 92° |
| 2026-05-06 16:28 | 14.67267 | -8.07520 | 44688 ft | 549 kts | 92° |
| 2026-05-06 16:29 | 14.67048 | -7.99647 | 44688 ft | 548 kts | 92° |
| 2026-05-06 16:29 | 14.66825 | -7.91807 | 44682 ft | 548 kts | 92° |
| 2026-05-06 16:30 | 14.66674 | -7.86544 | 44679 ft | 548 kts | 92° |
| 2026-05-06 16:30 | 14.66371 | -7.76071 | 44680 ft | 547 kts | 92° |
| 2026-05-06 16:31 | 14.66140 | -7.68213 | 44679 ft | 547 kts | 92° |
| 2026-05-06 16:31 | 14.65909 | -7.60417 | 44677 ft | 546 kts | 92° |
| 2026-05-06 16:32 | 14.65673 | -7.52563 | 44682 ft | 548 kts | 93° |
| 2026-05-06 16:32 | 14.65434 | -7.44677 | 44678 ft | 550 kts | 93° |
| 2026-05-06 16:33 | 14.65191 | -7.36773 | 44674 ft | 551 kts | 93° |
| 2026-05-06 16:34 | 14.64863 | -7.26222 | 44672 ft | 552 kts | 93° |
| 2026-05-06 16:34 | 14.64613 | -7.18288 | 44678 ft | 552 kts | 93° |
| 2026-05-06 16:35 | 14.64361 | -7.10364 | 44686 ft | 552 kts | 93° |
| 2026-05-06 16:35 | 14.64064 | -7.01147 | 44685 ft | 552 kts | 93° |
| 2026-05-06 16:36 | 14.63847 | -6.94496 | 44669 ft | 552 kts | 93° |
| 2026-05-06 16:36 | 14.63584 | -6.86571 | 44676 ft | 552 kts | 93° |
| 2026-05-06 16:37 | 14.63322 | -6.78707 | 44681 ft | 551 kts | 93° |
| 2026-05-06 16:37 | 14.63056 | -6.70807 | 44676 ft | 550 kts | 93° |
| 2026-05-06 16:38 | 14.62787 | -6.62918 | 44667 ft | 550 kts | 93° |
| 2026-05-06 16:38 | 14.62515 | -6.55035 | 44667 ft | 549 kts | 93° |
| 2026-05-06 16:39 | 14.62242 | -6.47158 | 44664 ft | 547 kts | 93° |
| 2026-05-06 16:39 | 14.61967 | -6.39308 | 44668 ft | 546 kts | 93° |
| 2026-05-06 16:40 | 14.61691 | -6.31515 | 44666 ft | 545 kts | 93° |
| 2026-05-06 16:40 | 14.61411 | -6.23692 | 44664 ft | 545 kts | 93° |
| 2026-05-06 16:41 | 14.61129 | -6.15876 | 44667 ft | 544 kts | 93° |
| 2026-05-06 16:41 | 14.60845 | -6.08059 | 44666 ft | 544 kts | 93° |
| 2026-05-06 16:42 | 14.60559 | -6.00262 | 44669 ft | 543 kts | 93° |
| 2026-05-06 16:42 | 14.60270 | -5.92473 | 44675 ft | 543 kts | 93° |
| 2026-05-06 16:43 | 14.59980 | -5.84738 | 44678 ft | 542 kts | 93° |
| 2026-05-06 16:43 | 14.59687 | -5.76960 | 44680 ft | 542 kts | 93° |
| 2026-05-06 16:44 | 14.59391 | -5.69173 | 44678 ft | 542 kts | 93° |
| 2026-05-06 16:44 | 14.59092 | -5.61389 | 44669 ft | 542 kts | 93° |
| 2026-05-06 16:45 | 14.58790 | -5.53594 | 44676 ft | 542 kts | 93° |
| 2026-05-06 16:45 | 14.58486 | -5.45818 | 44680 ft | 542 kts | 93° |
| 2026-05-06 16:46 | 14.58182 | -5.38096 | 44676 ft | 542 kts | 93° |
| 2026-05-06 16:46 | 14.57872 | -5.30300 | 44675 ft | 542 kts | 93° |
| 2026-05-06 16:47 | 14.57561 | -5.22520 | 44672 ft | 542 kts | 93° |
| 2026-05-06 16:47 | 14.57246 | -5.14748 | 44675 ft | 542 kts | 93° |
| 2026-05-06 16:48 | 14.56932 | -5.07023 | 44679 ft | 541 kts | 93° |
| 2026-05-06 16:48 | 14.56613 | -4.99250 | 44679 ft | 541 kts | 93° |
| 2026-05-06 16:49 | 14.56291 | -4.91485 | 44679 ft | 541 kts | 93° |
| 2026-05-06 16:49 | 14.55967 | -4.83721 | 44675 ft | 541 kts | 93° |
| 2026-05-06 16:50 | 14.55641 | -4.75954 | 44678 ft | 541 kts | 93° |
| 2026-05-06 16:50 | 14.55314 | -4.68241 | 44679 ft | 541 kts | 93° |
| 2026-05-06 16:51 | 14.54982 | -4.60473 | 44679 ft | 541 kts | 93° |
| 2026-05-06 16:51 | 14.54648 | -4.52703 | 44679 ft | 541 kts | 93° |
| 2026-05-06 16:52 | 14.54311 | -4.44938 | 44682 ft | 541 kts | 93° |
| 2026-05-06 16:52 | 14.53971 | -4.37175 | 44705 ft | 541 kts | 93° |
| 2026-05-06 16:53 | 14.53630 | -4.29408 | 44717 ft | 542 kts | 93° |
| 2026-05-06 16:53 | 14.53285 | -4.21645 | 44741 ft | 542 kts | 93° |
| 2026-05-06 16:54 | 14.52938 | -4.13876 | 44750 ft | 542 kts | 93° |
| 2026-05-06 16:54 | 14.52582 | -4.06160 | 44751 ft | 541 kts | 94° |
| 2026-05-06 16:55 | 14.52001 | -3.98419 | 44743 ft | 541 kts | 95° |
| 2026-05-06 16:55 | 14.51437 | -3.90657 | 44732 ft | 541 kts | 95° |
| 2026-05-06 16:56 | 14.50850 | -3.82921 | 44725 ft | 541 kts | 95° |
| 2026-05-06 16:56 | 14.50277 | -3.75187 | 44713 ft | 541 kts | 95° |
| 2026-05-06 16:57 | 14.49692 | -3.67490 | 44710 ft | 541 kts | 95° |
| 2026-05-06 16:57 | 14.49111 | -3.59761 | 44707 ft | 540 kts | 95° |
| 2026-05-06 16:58 | 14.48521 | -3.52024 | 44702 ft | 540 kts | 95° |
| 2026-05-06 16:58 | 14.47932 | -3.44293 | 44698 ft | 539 kts | 95° |
| 2026-05-06 16:59 | 14.47340 | -3.36583 | 44699 ft | 539 kts | 95° |
| 2026-05-06 16:59 | 14.46748 | -3.28881 | 44705 ft | 538 kts | 95° |
| 2026-05-06 17:00 | 14.46153 | -3.21186 | 44702 ft | 538 kts | 95° |
| 2026-05-06 17:00 | 14.45556 | -3.13492 | 44698 ft | 537 kts | 95° |
| 2026-05-06 17:01 | 14.44956 | -3.05808 | 44697 ft | 537 kts | 95° |
| 2026-05-06 17:01 | 14.44360 | -2.98185 | 44701 ft | 536 kts | 95° |
| 2026-05-06 17:02 | 14.43756 | -2.90508 | 44704 ft | 536 kts | 95° |
| 2026-05-06 17:02 | 14.43151 | -2.82843 | 44700 ft | 535 kts | 95° |
| 2026-05-06 17:03 | 14.42544 | -2.75185 | 44706 ft | 535 kts | 95° |
| 2026-05-06 17:03 | 14.41936 | -2.67549 | 44702 ft | 534 kts | 95° |
| 2026-05-06 17:04 | 14.41330 | -2.59968 | 44690 ft | 534 kts | 95° |
| 2026-05-06 17:04 | 14.40718 | -2.52337 | 44696 ft | 533 kts | 95° |
| 2026-05-06 17:05 | 14.40060 | -2.44726 | 44680 ft | 532 kts | 98° |
| 2026-05-06 17:05 | 14.38665 | -2.37251 | 44700 ft | 530 kts | 103° |
| 2026-05-06 17:06 | 14.37257 | -2.29781 | 44704 ft | 530 kts | 101° |
| 2026-05-06 17:06 | 14.35873 | -2.22307 | 44705 ft | 530 kts | 103° |
| 2026-05-06 17:07 | 14.34451 | -2.14845 | 44705 ft | 530 kts | 102° |
| 2026-05-06 17:07 | 14.33074 | -2.07435 | 44703 ft | 530 kts | 102° |
| 2026-05-06 17:08 | 14.31654 | -1.99980 | 44704 ft | 529 kts | 102° |
| 2026-05-06 17:08 | 14.30255 | -1.92520 | 44710 ft | 529 kts | 102° |
| 2026-05-06 17:09 | 14.28839 | -1.85079 | 44699 ft | 529 kts | 102° |
| 2026-05-06 17:09 | 14.27435 | -1.77641 | 44703 ft | 528 kts | 102° |
| 2026-05-06 17:10 | 14.26019 | -1.70207 | 44701 ft | 528 kts | 102° |
| 2026-05-06 17:10 | 14.24609 | -1.62782 | 44695 ft | 528 kts | 102° |
| 2026-05-06 17:11 | 14.23201 | -1.55397 | 44702 ft | 527 kts | 102° |
| 2026-05-06 17:11 | 14.21783 | -1.47970 | 44699 ft | 527 kts | 102° |
| 2026-05-06 17:12 | 14.20366 | -1.40559 | 44704 ft | 527 kts | 102° |
| 2026-05-06 17:12 | 14.18946 | -1.33150 | 44703 ft | 527 kts | 102° |
| 2026-05-06 17:13 | 14.17534 | -1.25793 | 44700 ft | 526 kts | 103° |
| 2026-05-06 17:13 | 14.16112 | -1.18395 | 44695 ft | 526 kts | 103° |
| 2026-05-06 17:14 | 14.14688 | -1.10999 | 44698 ft | 526 kts | 103° |
| 2026-05-06 17:14 | 14.13262 | -1.03610 | 44701 ft | 525 kts | 103° |
| 2026-05-06 17:15 | 14.11835 | -0.96221 | 44697 ft | 526 kts | 103° |
| 2026-05-06 17:15 | 14.10406 | -0.88839 | 44704 ft | 525 kts | 103° |
| 2026-05-06 17:16 | 14.08976 | -0.81462 | 44710 ft | 525 kts | 103° |
| 2026-05-06 17:16 | 14.07543 | -0.74081 | 44704 ft | 525 kts | 103° |
| 2026-05-06 17:17 | 14.06108 | -0.66706 | 44715 ft | 525 kts | 103° |
| 2026-05-06 17:17 | 14.04680 | -0.59377 | 44720 ft | 525 kts | 103° |
| 2026-05-06 17:18 | 14.03241 | -0.52004 | 44709 ft | 525 kts | 103° |
| 2026-05-06 17:18 | 14.01777 | -0.44629 | 44704 ft | 524 kts | 105° |
| 2026-05-06 17:19 | 13.99124 | -0.37704 | 44715 ft | 518 kts | 120° |
| 2026-05-06 17:19 | 13.95660 | -0.31255 | 44726 ft | 518 kts | 120° |
| 2026-05-06 17:20 | 13.92498 | -0.24559 | 44731 ft | 519 kts | 119° |
| 2026-05-06 17:20 | 13.89143 | -0.17986 | 44724 ft | 519 kts | 120° |
| 2026-05-06 17:21 | 13.85891 | -0.11346 | 44725 ft | 519 kts | 119° |
| 2026-05-06 17:21 | 13.82579 | -0.04727 | 44732 ft | 519 kts | 120° |